createdAt,value
2022-10-09T00:00:03.762Z,5.30
2022-10-09T00:05:07.914Z,5.10
2022-10-09T00:10:11.404Z,5.10
2022-10-09T00:15:16.251Z,5.00
2022-10-09T00:20:19.658Z,4.90
2022-10-09T00:25:22.969Z,4.90
2022-10-09T00:30:28.071Z,4.90
2022-10-09T00:35:32.083Z,4.90
2022-10-09T00:40:35.661Z,4.80
2022-10-09T00:45:41.414Z,4.70
2022-10-09T00:50:49.823Z,4.70
2022-10-09T00:55:53.563Z,4.70
2022-10-09T01:00:58.309Z,4.60
2022-10-09T01:06:09.579Z,4.60
2022-10-09T01:11:22.015Z,4.60
2022-10-09T01:16:30.374Z,4.60
2022-10-09T01:21:39.696Z,4.40
2022-10-09T01:27:05.706Z,4.50
2022-10-09T01:32:11.072Z,4.50
2022-10-09T01:37:16.011Z,4.50
2022-10-09T01:42:23.487Z,4.50
2022-10-09T01:47:27.073Z,4.50
2022-10-09T01:52:41.269Z,4.60
2022-10-09T01:57:51.752Z,4.60
2022-10-09T02:02:56.579Z,4.50
2022-10-09T02:08:00.416Z,4.50
2022-10-09T02:13:05.760Z,4.50
2022-10-09T02:18:14.057Z,4.50
2022-10-09T02:23:19.326Z,4.40
2022-10-09T02:28:24.374Z,4.40
2022-10-09T02:33:33.634Z,4.30
2022-10-09T02:38:36.939Z,4.30
2022-10-09T02:43:41.586Z,4.40
2022-10-09T02:48:44.905Z,4.40
2022-10-09T02:53:48.198Z,4.50
2022-10-09T02:58:53.270Z,4.60
2022-10-09T03:03:56.590Z,4.60
2022-10-09T03:08:59.839Z,4.70
2022-10-09T03:14:04.479Z,4.70
2022-10-09T03:19:07.756Z,4.80
2022-10-09T03:24:11.371Z,4.70
2022-10-09T03:29:16.974Z,4.60
2022-10-09T03:34:20.344Z,4.60
2022-10-09T03:39:23.556Z,4.50
2022-10-09T03:44:28.303Z,4.40
2022-10-09T03:49:31.539Z,4.30
2022-10-09T03:54:34.896Z,4.30
2022-10-09T03:59:39.558Z,4.30
2022-10-09T04:04:42.884Z,4.30
2022-10-09T04:09:46.182Z,4.30
2022-10-09T04:14:50.865Z,4.20
2022-10-09T04:19:54.038Z,4.20
2022-10-09T04:24:57.347Z,4.10
2022-10-09T04:30:02.079Z,4.10
2022-10-09T04:35:06.045Z,4.10
2022-10-09T04:40:09.942Z,4.20
2022-10-09T04:45:14.586Z,4.20
2022-10-09T04:50:19.580Z,4.20
2022-10-09T04:55:22.858Z,4.20
2022-10-09T05:00:27.465Z,4.10
2022-10-09T05:05:32.860Z,3.90
2022-10-09T05:10:40.226Z,3.80
2022-10-09T05:15:44.897Z,3.70
2022-10-09T05:20:48.088Z,3.70
2022-10-09T05:25:56.133Z,3.70
2022-10-09T05:31:00.995Z,3.80
2022-10-09T05:36:08.596Z,3.70
2022-10-09T05:41:14.427Z,3.70
2022-10-09T05:46:25.196Z,3.60
2022-10-09T05:51:30.469Z,3.60
2022-10-09T05:56:35.423Z,3.50
2022-10-09T06:01:41.574Z,3.50
2022-10-09T06:06:48.959Z,3.60
2022-10-09T06:11:53.070Z,3.80
2022-10-09T06:16:59.980Z,4.00
2022-10-09T06:22:03.261Z,4.10
2022-10-09T06:27:06.566Z,4.40
2022-10-09T06:32:11.207Z,4.50
2022-10-09T06:37:14.487Z,4.90
2022-10-09T06:42:18.001Z,5.30
2022-10-09T06:47:22.654Z,5.50
2022-10-09T06:52:26.133Z,5.70
2022-10-09T06:57:29.559Z,5.70
2022-10-09T07:02:35.111Z,5.80
2022-10-09T07:07:41.678Z,6.00
2022-10-09T07:12:46.173Z,6.20
2022-10-09T07:17:51.115Z,6.50
2022-10-09T07:22:54.433Z,6.70
2022-10-09T07:27:57.797Z,6.80
2022-10-09T07:33:03.172Z,7.00
2022-10-09T07:38:06.465Z,7.10
2022-10-09T07:43:09.826Z,7.30
2022-10-09T07:48:14.576Z,7.60
2022-10-09T07:53:17.867Z,7.80
2022-10-09T07:58:21.191Z,8.10
2022-10-09T08:03:25.876Z,9.00
2022-10-09T08:08:29.234Z,11.10
2022-10-09T08:13:32.532Z,12.20
2022-10-09T08:18:37.737Z,13.20
2022-10-09T08:23:41.101Z,14.60
2022-10-09T08:28:45.758Z,16.30
2022-10-09T08:33:53.975Z,17.10
2022-10-09T08:38:57.285Z,17.70
2022-10-09T08:44:04.562Z,18.80
2022-10-09T08:49:18.064Z,20.00
2022-10-09T08:54:27.649Z,18.90
2022-10-09T08:59:30.951Z,18.60
2022-10-09T09:04:56.619Z,19.50
2022-10-09T09:10:07.372Z,19.20
2022-10-09T09:15:26.994Z,19.50
2022-10-09T09:20:40.227Z,20.00
2022-10-09T09:25:46.188Z,20.40
2022-10-09T09:30:55.979Z,20.30
2022-10-09T09:36:09.518Z,19.30
2022-10-09T09:41:13.427Z,19.50
2022-10-09T09:46:20.401Z,18.70
2022-10-09T09:51:30.527Z,17.60
2022-10-09T09:56:53.387Z,16.90
2022-10-09T10:02:03.882Z,16.10
2022-10-09T10:07:08.747Z,15.60
2022-10-09T10:12:17.744Z,15.90
2022-10-09T10:23:00.308Z,16.00
2022-10-09T10:28:12.289Z,16.30
2022-10-09T10:33:20.756Z,16.30
2022-10-09T10:38:30.955Z,16.40
2022-10-09T10:43:40.238Z,16.40
2022-10-09T10:48:47.102Z,16.60
2022-10-09T10:54:04.628Z,16.80
2022-10-09T10:59:28.109Z,16.60
2022-10-09T11:04:45.666Z,16.60
2022-10-09T11:10:00.169Z,16.60
2022-10-09T11:15:14.048Z,16.70
2022-10-09T11:20:34.810Z,16.70
2022-10-09T11:25:49.787Z,16.40
2022-10-09T11:30:58.667Z,16.20
2022-10-09T11:36:05.820Z,16.30
2022-10-09T11:41:11.040Z,16.40
2022-10-09T11:46:22.968Z,16.50
2022-10-09T11:51:33.911Z,17.00
2022-10-09T11:56:38.549Z,17.10
2022-10-09T12:01:44.744Z,17.20
2022-10-09T12:06:50.781Z,17.20
2022-10-09T12:12:03.530Z,17.20
2022-10-09T12:17:17.453Z,17.30
2022-10-09T12:22:26.382Z,17.40
2022-10-09T12:27:35.780Z,16.90
2022-10-09T12:32:41.897Z,17.10
2022-10-09T12:37:45.149Z,17.40
2022-10-09T12:42:52.428Z,17.60
2022-10-09T12:47:56.439Z,17.60
2022-10-09T12:53:01.960Z,17.30
2022-10-09T12:58:09.950Z,17.00
2022-10-09T13:03:24.395Z,17.20
2022-10-09T13:08:31.153Z,17.40
2022-10-09T13:13:36.168Z,17.40
2022-10-09T13:18:39.980Z,17.40
2022-10-09T13:23:43.621Z,17.30
2022-10-09T13:28:48.346Z,17.30
2022-10-09T13:33:51.929Z,17.00
2022-10-09T13:38:55.205Z,17.20
2022-10-09T13:44:00.027Z,17.10
2022-10-09T13:49:03.442Z,16.90
2022-10-09T13:54:06.932Z,17.00
2022-10-09T13:59:12.228Z,17.30
2022-10-09T14:04:15.571Z,17.40
2022-10-09T14:09:19.154Z,17.20
2022-10-09T14:14:23.814Z,17.20
2022-10-09T14:19:28.179Z,17.00
2022-10-09T14:24:31.517Z,17.10
2022-10-09T14:29:37.551Z,17.00
2022-10-09T14:34:40.907Z,17.00
2022-10-09T14:39:44.607Z,16.90
2022-10-09T14:44:49.286Z,17.00
2022-10-09T14:49:52.641Z,17.00
2022-10-09T14:54:56.019Z,16.90
2022-10-09T15:00:00.780Z,16.90
2022-10-09T15:05:04.469Z,17.00
2022-10-09T15:10:08.415Z,16.70
2022-10-09T15:15:13.284Z,16.70
2022-10-09T15:20:16.799Z,16.70
2022-10-09T15:25:20.162Z,16.50
2022-10-09T15:30:26.478Z,16.50
2022-10-09T15:35:34.380Z,16.60
2022-10-09T15:40:45.202Z,16.60
2022-10-09T15:45:50.511Z,16.30
2022-10-09T15:50:54.876Z,16.00
2022-10-09T15:55:58.136Z,15.60
2022-10-09T16:01:06.699Z,15.40
2022-10-09T16:06:12.605Z,15.20
2022-10-09T16:11:20.194Z,14.90
2022-10-09T16:16:29.300Z,14.70
2022-10-09T16:27:00.614Z,14.30
2022-10-09T16:32:05.285Z,14.00
2022-10-09T16:37:08.799Z,13.90
2022-10-09T16:42:13.731Z,13.70
2022-10-09T16:47:18.542Z,13.70
2022-10-09T16:52:22.247Z,13.70
2022-10-09T16:57:27.609Z,13.70
2022-10-09T17:02:32.287Z,13.60
2022-10-09T17:07:35.747Z,13.60
2022-10-09T17:12:46.097Z,13.40
2022-10-09T17:17:51.216Z,13.30
2022-10-09T17:22:54.623Z,13.10
2022-10-09T17:28:01.452Z,13.00
2022-10-09T17:33:18.914Z,13.00
2022-10-09T17:38:23.082Z,13.00
2022-10-09T17:43:26.566Z,13.00
2022-10-09T17:48:33.157Z,13.00
2022-10-09T17:53:36.528Z,12.90
2022-10-09T17:58:39.889Z,13.00
2022-10-09T18:03:45.781Z,13.00
2022-10-09T18:08:49.341Z,13.00
2022-10-09T18:13:53.716Z,13.00
2022-10-09T18:19:01.319Z,13.00
2022-10-09T18:24:04.888Z,13.00
2022-10-09T18:29:08.638Z,13.00
2022-10-09T18:34:14.888Z,12.90
2022-10-09T18:39:21.589Z,12.90
2022-10-09T18:44:26.864Z,12.80
2022-10-09T18:49:33.140Z,12.80
2022-10-09T18:54:37.346Z,12.90
2022-10-09T18:59:41.499Z,12.80
2022-10-09T19:04:46.201Z,12.80
2022-10-09T19:09:54.916Z,12.70
2022-10-09T19:14:59.760Z,12.70
2022-10-09T19:20:04.635Z,12.70
2022-10-09T19:25:08.520Z,12.80
2022-10-09T19:30:12.491Z,12.70
2022-10-09T19:35:17.552Z,12.70
2022-10-09T19:40:20.869Z,12.70
2022-10-09T19:45:24.478Z,12.60
2022-10-09T19:50:29.311Z,12.60
2022-10-09T19:55:34.370Z,12.60
2022-10-09T20:00:43.185Z,12.50
2022-10-09T20:05:48.007Z,12.50
2022-10-09T20:10:51.298Z,12.40
2022-10-09T20:15:54.769Z,12.40
2022-10-09T20:20:59.527Z,12.40
2022-10-09T20:26:04.114Z,12.40
2022-10-09T20:31:09.927Z,12.40
2022-10-09T20:36:22.795Z,12.40
2022-10-09T20:41:27.296Z,12.40
2022-10-09T20:46:32.743Z,12.40
2022-10-09T20:51:38.530Z,12.40
2022-10-09T20:56:44.735Z,12.40
2022-10-09T21:01:48.021Z,12.40
2022-10-09T21:06:52.853Z,12.40
2022-10-09T21:11:57.515Z,12.40
2022-10-09T21:17:00.812Z,12.60
2022-10-09T21:22:05.590Z,12.50
2022-10-09T21:27:09.467Z,12.50
2022-10-09T21:32:12.714Z,12.50
2022-10-09T21:37:21.396Z,12.40
2022-10-09T21:42:25.376Z,12.50
2022-10-09T21:47:29.012Z,12.40
2022-10-09T21:52:33.818Z,12.40
2022-10-09T21:57:37.070Z,12.40
2022-10-09T22:02:40.500Z,12.40
2022-10-09T22:07:45.335Z,12.30
2022-10-09T22:12:48.950Z,12.20
2022-10-09T22:17:52.427Z,12.00
2022-10-09T22:22:57.078Z,11.70
2022-10-09T22:28:00.498Z,11.40
2022-10-09T22:33:03.841Z,11.20
2022-10-09T22:38:13.420Z,10.90
2022-10-09T22:43:16.716Z,10.70
2022-10-09T22:53:49.976Z,10.50
2022-10-09T22:58:54.789Z,10.50
2022-10-09T23:03:59.020Z,10.40
2022-10-09T23:09:06.937Z,10.40
2022-10-09T23:14:11.523Z,10.30
2022-10-09T23:19:14.987Z,10.30
2022-10-09T23:24:27.005Z,10.30
2022-10-09T23:29:30.396Z,10.30
2022-10-09T23:34:33.724Z,10.30
2022-10-09T23:39:38.456Z,10.20
2022-10-09T23:44:53.709Z,10.20
2022-10-09T23:49:58.465Z,10.20
2022-10-09T23:55:03.204Z,10.10
